sensor_id;sensor_type;location;lat;lon;timestamp;P1;durP1;ratioP1;P2;durP2;ratioP2
11731;SDS011;5922;53.734;10.258;2023-03-13T00:00:57;24.63;;;8.10;;
11731;SDS011;5922;53.734;10.258;2023-03-13T00:03:24;21.80;;;6.33;;
11731;SDS011;5922;53.734;10.258;2023-03-13T00:05:54;27.37;;;7.47;;
11731;SDS011;5922;53.734;10.258;2023-03-13T00:08:21;27.93;;;7.30;;
11731;SDS011;5922;53.734;10.258;2023-03-13T00:10:49;21.63;;;6.17;;
11731;SDS011;5922;53.734;10.258;2023-03-13T00:13:16;15.90;;;5.87;;
11731;SDS011;5922;53.734;10.258;2023-03-13T00:15:44;18.03;;;6.30;;
11731;SDS011;5922;53.734;10.258;2023-03-13T00:18:12;17.00;;;5.70;;
11731;SDS011;5922;53.734;10.258;2023-03-13T00:20:39;19.73;;;5.77;;
11731;SDS011;5922;53.734;10.258;2023-03-13T00:23:06;28.90;;;6.83;;
11731;SDS011;5922;53.734;10.258;2023-03-13T00:25:34;23.53;;;6.80;;
11731;SDS011;5922;53.734;10.258;2023-03-13T00:28:03;21.13;;;6.27;;
11731;SDS011;5922;53.734;10.258;2023-03-13T00:30:30;21.13;;;6.53;;
11731;SDS011;5922;53.734;10.258;2023-03-13T00:32:59;23.53;;;6.03;;
11731;SDS011;5922;53.734;10.258;2023-03-13T00:35:26;20.87;;;5.83;;
11731;SDS011;5922;53.734;10.258;2023-03-13T00:37:53;29.03;;;7.00;;
11731;SDS011;5922;53.734;10.258;2023-03-13T00:40:20;18.37;;;5.80;;
11731;SDS011;5922;53.734;10.258;2023-03-13T00:42:48;25.40;;;6.50;;
11731;SDS011;5922;53.734;10.258;2023-03-13T00:45:15;18.40;;;5.90;;
11731;SDS011;5922;53.734;10.258;2023-03-13T00:47:42;20.87;;;6.57;;
11731;SDS011;5922;53.734;10.258;2023-03-13T00:50:11;19.90;;;6.20;;
11731;SDS011;5922;53.734;10.258;2023-03-13T00:52:38;20.73;;;5.83;;
11731;SDS011;5922;53.734;10.258;2023-03-13T00:55:06;23.53;;;5.67;;
11731;SDS011;5922;53.734;10.258;2023-03-13T00:57:33;20.90;;;6.13;;
11731;SDS011;5922;53.734;10.258;2023-03-13T01:00:02;19.83;;;6.50;;
11731;SDS011;5922;53.734;10.258;2023-03-13T01:02:31;19.93;;;5.70;;
11731;SDS011;5922;53.734;10.258;2023-03-13T01:04:59;25.07;;;6.23;;
11731;SDS011;5922;53.734;10.258;2023-03-13T01:07:29;23.83;;;6.60;;
11731;SDS011;5922;53.734;10.258;2023-03-13T01:09:59;20.23;;;6.27;;
11731;SDS011;5922;53.734;10.258;2023-03-13T01:12:26;22.73;;;6.63;;
11731;SDS011;5922;53.734;10.258;2023-03-13T01:14:53;18.73;;;6.03;;
11731;SDS011;5922;53.734;10.258;2023-03-13T01:17:20;24.03;;;5.90;;
11731;SDS011;5922;53.734;10.258;2023-03-13T01:19:47;19.83;;;5.67;;
11731;SDS011;5922;53.734;10.258;2023-03-13T01:22:15;20.07;;;6.53;;
11731;SDS011;5922;53.734;10.258;2023-03-13T01:24:46;23.57;;;6.80;;
11731;SDS011;5922;53.734;10.258;2023-03-13T01:27:16;23.20;;;6.13;;
11731;SDS011;5922;53.734;10.258;2023-03-13T01:29:45;21.60;;;6.37;;
11731;SDS011;5922;53.734;10.258;2023-03-13T01:32:13;23.27;;;7.27;;
11731;SDS011;5922;53.734;10.258;2023-03-13T01:34:40;21.00;;;6.23;;
11731;SDS011;5922;53.734;10.258;2023-03-13T01:37:07;19.40;;;6.37;;
11731;SDS011;5922;53.734;10.258;2023-03-13T01:39:34;18.93;;;5.90;;
11731;SDS011;5922;53.734;10.258;2023-03-13T01:42:03;17.83;;;6.40;;
11731;SDS011;5922;53.734;10.258;2023-03-13T01:44:47;24.83;;;6.60;;
11731;SDS011;5922;53.734;10.258;2023-03-13T01:47:14;19.07;;;5.83;;
11731;SDS011;5922;53.734;10.258;2023-03-13T01:49:42;21.80;;;6.47;;
11731;SDS011;5922;53.734;10.258;2023-03-13T01:52:12;16.77;;;6.07;;
11731;SDS011;5922;53.734;10.258;2023-03-13T01:54:41;21.60;;;6.43;;
11731;SDS011;5922;53.734;10.258;2023-03-13T01:57:11;23.13;;;6.43;;
11731;SDS011;5922;53.734;10.258;2023-03-13T01:59:40;21.07;;;6.73;;
11731;SDS011;5922;53.734;10.258;2023-03-13T02:02:09;23.73;;;6.50;;
11731;SDS011;5922;53.734;10.258;2023-03-13T02:04:37;22.63;;;6.60;;
11731;SDS011;5922;53.734;10.258;2023-03-13T02:07:07;20.10;;;6.53;;
11731;SDS011;5922;53.734;10.258;2023-03-13T02:09:35;22.00;;;6.57;;
11731;SDS011;5922;53.734;10.258;2023-03-13T02:12:03;18.37;;;5.93;;
11731;SDS011;5922;53.734;10.258;2023-03-13T02:14:35;19.07;;;6.03;;
11731;SDS011;5922;53.734;10.258;2023-03-13T02:17:03;26.10;;;6.73;;
11731;SDS011;5922;53.734;10.258;2023-03-13T02:19:32;19.50;;;6.03;;
11731;SDS011;5922;53.734;10.258;2023-03-13T02:22:03;22.50;;;7.00;;
11731;SDS011;5922;53.734;10.258;2023-03-13T02:24:33;18.60;;;6.33;;
11731;SDS011;5922;53.734;10.258;2023-03-13T02:27:04;24.50;;;7.20;;
11731;SDS011;5922;53.734;10.258;2023-03-13T02:29:32;21.10;;;6.60;;
11731;SDS011;5922;53.734;10.258;2023-03-13T02:31:59;24.80;;;7.23;;
11731;SDS011;5922;53.734;10.258;2023-03-13T02:34:27;23.93;;;6.33;;
11731;SDS011;5922;53.734;10.258;2023-03-13T02:36:56;22.30;;;6.87;;
11731;SDS011;5922;53.734;10.258;2023-03-13T02:39:23;18.90;;;6.00;;
11731;SDS011;5922;53.734;10.258;2023-03-13T02:41:51;18.90;;;6.30;;
11731;SDS011;5922;53.734;10.258;2023-03-13T02:44:20;25.40;;;6.10;;
11731;SDS011;5922;53.734;10.258;2023-03-13T02:46:48;26.20;;;6.70;;
11731;SDS011;5922;53.734;10.258;2023-03-13T02:49:19;21.57;;;5.40;;
11731;SDS011;5922;53.734;10.258;2023-03-13T02:51:46;23.93;;;5.83;;
11731;SDS011;5922;53.734;10.258;2023-03-13T02:54:16;27.70;;;6.40;;
11731;SDS011;5922;53.734;10.258;2023-03-13T02:56:44;17.50;;;5.63;;
11731;SDS011;5922;53.734;10.258;2023-03-13T02:59:13;21.27;;;5.63;;
11731;SDS011;5922;53.734;10.258;2023-03-13T03:01:41;19.40;;;6.17;;
11731;SDS011;5922;53.734;10.258;2023-03-13T03:04:09;25.07;;;6.50;;
11731;SDS011;5922;53.734;10.258;2023-03-13T03:06:37;21.00;;;6.20;;
11731;SDS011;5922;53.734;10.258;2023-03-13T03:09:06;22.13;;;5.97;;
11731;SDS011;5922;53.734;10.258;2023-03-13T03:11:34;20.03;;;6.17;;
11731;SDS011;5922;53.734;10.258;2023-03-13T03:14:02;22.13;;;6.33;;
11731;SDS011;5922;53.734;10.258;2023-03-13T03:16:30;25.90;;;6.33;;
11731;SDS011;5922;53.734;10.258;2023-03-13T03:18:58;21.07;;;5.80;;
11731;SDS011;5922;53.734;10.258;2023-03-13T03:21:25;29.90;;;6.83;;
11731;SDS011;5922;53.734;10.258;2023-03-13T03:23:53;22.30;;;5.90;;
11731;SDS011;5922;53.734;10.258;2023-03-13T03:26:20;21.83;;;5.97;;
11731;SDS011;5922;53.734;10.258;2023-03-13T03:28:47;19.60;;;6.17;;
11731;SDS011;5922;53.734;10.258;2023-03-13T03:31:14;22.53;;;5.87;;
11731;SDS011;5922;53.734;10.258;2023-03-13T03:33:42;23.07;;;6.93;;
11731;SDS011;5922;53.734;10.258;2023-03-13T03:36:12;22.30;;;5.70;;
11731;SDS011;5922;53.734;10.258;2023-03-13T03:38:40;20.80;;;5.70;;
11731;SDS011;5922;53.734;10.258;2023-03-13T03:41:10;19.20;;;5.60;;
11731;SDS011;5922;53.734;10.258;2023-03-13T03:43:40;19.93;;;6.23;;
11731;SDS011;5922;53.734;10.258;2023-03-13T03:46:07;18.97;;;5.97;;
11731;SDS011;5922;53.734;10.258;2023-03-13T03:48:35;22.00;;;6.67;;
11731;SDS011;5922;53.734;10.258;2023-03-13T03:51:02;26.33;;;5.73;;
11731;SDS011;5922;53.734;10.258;2023-03-13T03:53:31;23.00;;;5.63;;
11731;SDS011;5922;53.734;10.258;2023-03-13T03:56:01;21.90;;;5.27;;
11731;SDS011;5922;53.734;10.258;2023-03-13T03:58:28;23.80;;;6.43;;
11731;SDS011;5922;53.734;10.258;2023-03-13T04:00:56;20.97;;;5.90;;
11731;SDS011;5922;53.734;10.258;2023-03-13T04:03:23;20.33;;;5.90;;
11731;SDS011;5922;53.734;10.258;2023-03-13T04:05:51;18.83;;;5.20;;
11731;SDS011;5922;53.734;10.258;2023-03-13T04:08:18;20.67;;;6.23;;
11731;SDS011;5922;53.734;10.258;2023-03-13T04:10:47;19.27;;;5.30;;
11731;SDS011;5922;53.734;10.258;2023-03-13T04:13:14;17.43;;;4.80;;
11731;SDS011;5922;53.734;10.258;2023-03-13T04:15:42;22.70;;;5.17;;
11731;SDS011;5922;53.734;10.258;2023-03-13T04:18:09;17.97;;;5.17;;
11731;SDS011;5922;53.734;10.258;2023-03-13T04:20:38;21.47;;;5.17;;
11731;SDS011;5922;53.734;10.258;2023-03-13T04:23:05;16.93;;;4.80;;
11731;SDS011;5922;53.734;10.258;2023-03-13T04:25:33;20.90;;;6.17;;
11731;SDS011;5922;53.734;10.258;2023-03-13T04:28:01;16.97;;;4.70;;
11731;SDS011;5922;53.734;10.258;2023-03-13T04:30:28;22.87;;;6.27;;
11731;SDS011;5922;53.734;10.258;2023-03-13T04:32:56;13.80;;;5.07;;
11731;SDS011;5922;53.734;10.258;2023-03-13T04:35:23;16.43;;;5.00;;
11731;SDS011;5922;53.734;10.258;2023-03-13T04:37:50;21.03;;;5.37;;
11731;SDS011;5922;53.734;10.258;2023-03-13T04:40:17;17.77;;;4.73;;
11731;SDS011;5922;53.734;10.258;2023-03-13T04:42:45;15.83;;;5.13;;
11731;SDS011;5922;53.734;10.258;2023-03-13T04:45:13;16.77;;;5.60;;
11731;SDS011;5922;53.734;10.258;2023-03-13T04:47:43;14.47;;;4.80;;
11731;SDS011;5922;53.734;10.258;2023-03-13T04:50:11;23.27;;;4.67;;
11731;SDS011;5922;53.734;10.258;2023-03-13T04:52:39;16.90;;;5.23;;
11731;SDS011;5922;53.734;10.258;2023-03-13T04:55:06;22.57;;;4.90;;
11731;SDS011;5922;53.734;10.258;2023-03-13T04:57:33;17.30;;;5.17;;
11731;SDS011;5922;53.734;10.258;2023-03-13T05:00:01;12.10;;;4.07;;
11731;SDS011;5922;53.734;10.258;2023-03-13T05:02:33;13.93;;;4.40;;
11731;SDS011;5922;53.734;10.258;2023-03-13T05:05:00;15.20;;;4.77;;
11731;SDS011;5922;53.734;10.258;2023-03-13T05:07:27;14.97;;;4.57;;
11731;SDS011;5922;53.734;10.258;2023-03-13T05:09:55;16.13;;;4.43;;
11731;SDS011;5922;53.734;10.258;2023-03-13T05:12:22;20.13;;;4.67;;
11731;SDS011;5922;53.734;10.258;2023-03-13T05:14:49;10.57;;;4.03;;
11731;SDS011;5922;53.734;10.258;2023-03-13T05:17:17;16.03;;;4.60;;
11731;SDS011;5922;53.734;10.258;2023-03-13T05:19:46;16.77;;;4.97;;
11731;SDS011;5922;53.734;10.258;2023-03-13T05:22:13;11.30;;;3.80;;
11731;SDS011;5922;53.734;10.258;2023-03-13T05:24:40;13.97;;;4.83;;
11731;SDS011;5922;53.734;10.258;2023-03-13T05:27:07;17.50;;;5.33;;
11731;SDS011;5922;53.734;10.258;2023-03-13T05:29:35;11.10;;;4.60;;
11731;SDS011;5922;53.734;10.258;2023-03-13T05:32:04;14.03;;;4.40;;
11731;SDS011;5922;53.734;10.258;2023-03-13T05:34:31;14.80;;;4.73;;
11731;SDS011;5922;53.734;10.258;2023-03-13T05:37:00;12.87;;;3.70;;
11731;SDS011;5922;53.734;10.258;2023-03-13T05:39:27;16.63;;;4.20;;
11731;SDS011;5922;53.734;10.258;2023-03-13T05:41:54;14.43;;;4.50;;
11731;SDS011;5922;53.734;10.258;2023-03-13T05:44:21;14.97;;;4.23;;
11731;SDS011;5922;53.734;10.258;2023-03-13T05:46:49;11.50;;;4.10;;
11731;SDS011;5922;53.734;10.258;2023-03-13T05:49:16;13.93;;;4.00;;
11731;SDS011;5922;53.734;10.258;2023-03-13T05:51:45;12.30;;;4.60;;
11731;SDS011;5922;53.734;10.258;2023-03-13T05:54:16;13.73;;;3.63;;
11731;SDS011;5922;53.734;10.258;2023-03-13T05:56:43;11.17;;;3.40;;
11731;SDS011;5922;53.734;10.258;2023-03-13T05:59:14;12.83;;;3.87;;
11731;SDS011;5922;53.734;10.258;2023-03-13T06:01:41;12.43;;;3.57;;
11731;SDS011;5922;53.734;10.258;2023-03-13T06:04:08;12.93;;;3.67;;
11731;SDS011;5922;53.734;10.258;2023-03-13T06:06:36;11.20;;;3.10;;
11731;SDS011;5922;53.734;10.258;2023-03-13T06:09:03;6.90;;;3.20;;
11731;SDS011;5922;53.734;10.258;2023-03-13T06:11:31;8.27;;;2.63;;
11731;SDS011;5922;53.734;10.258;2023-03-13T06:13:59;10.33;;;3.13;;
11731;SDS011;5922;53.734;10.258;2023-03-13T06:16:26;9.17;;;2.87;;
11731;SDS011;5922;53.734;10.258;2023-03-13T06:18:56;10.37;;;3.17;;
11731;SDS011;5922;53.734;10.258;2023-03-13T06:21:26;5.00;;;2.63;;
11731;SDS011;5922;53.734;10.258;2023-03-13T06:23:53;5.60;;;2.77;;
11731;SDS011;5922;53.734;10.258;2023-03-13T06:26:21;6.57;;;2.80;;
11731;SDS011;5922;53.734;10.258;2023-03-13T06:28:51;7.03;;;2.67;;
11731;SDS011;5922;53.734;10.258;2023-03-13T06:31:18;9.07;;;2.60;;
11731;SDS011;5922;53.734;10.258;2023-03-13T06:33:45;6.60;;;2.60;;
11731;SDS011;5922;53.734;10.258;2023-03-13T06:36:15;5.83;;;2.40;;
11731;SDS011;5922;53.734;10.258;2023-03-13T06:38:42;5.43;;;2.00;;
11731;SDS011;5922;53.734;10.258;2023-03-13T06:41:09;5.13;;;2.10;;
11731;SDS011;5922;53.734;10.258;2023-03-13T06:43:36;4.50;;;1.80;;
11731;SDS011;5922;53.734;10.258;2023-03-13T06:46:06;6.20;;;2.10;;
11731;SDS011;5922;53.734;10.258;2023-03-13T06:48:33;3.90;;;1.93;;
11731;SDS011;5922;53.734;10.258;2023-03-13T06:51:01;5.50;;;2.00;;
11731;SDS011;5922;53.734;10.258;2023-03-13T06:53:28;3.73;;;2.03;;
11731;SDS011;5922;53.734;10.258;2023-03-13T06:55:55;2.77;;;1.60;;
11731;SDS011;5922;53.734;10.258;2023-03-13T06:58:26;2.83;;;1.80;;
11731;SDS011;5922;53.734;10.258;2023-03-13T07:00:53;1.93;;;1.63;;
11731;SDS011;5922;53.734;10.258;2023-03-13T07:03:22;4.63;;;1.77;;
11731;SDS011;5922;53.734;10.258;2023-03-13T07:05:53;3.00;;;1.63;;
11731;SDS011;5922;53.734;10.258;2023-03-13T07:08:21;3.63;;;1.70;;
11731;SDS011;5922;53.734;10.258;2023-03-13T07:10:49;3.77;;;1.87;;
11731;SDS011;5922;53.734;10.258;2023-03-13T07:13:17;5.10;;;2.10;;
11731;SDS011;5922;53.734;10.258;2023-03-13T07:15:45;4.90;;;1.90;;
11731;SDS011;5922;53.734;10.258;2023-03-13T07:18:13;3.23;;;1.63;;
11731;SDS011;5922;53.734;10.258;2023-03-13T07:20:42;2.20;;;1.50;;
11731;SDS011;5922;53.734;10.258;2023-03-13T07:23:09;3.20;;;1.73;;
11731;SDS011;5922;53.734;10.258;2023-03-13T07:25:36;3.93;;;1.80;;
11731;SDS011;5922;53.734;10.258;2023-03-13T07:28:04;2.60;;;1.70;;
11731;SDS011;5922;53.734;10.258;2023-03-13T07:30:33;2.20;;;1.60;;
11731;SDS011;5922;53.734;10.258;2023-03-13T07:33:00;2.27;;;1.50;;
11731;SDS011;5922;53.734;10.258;2023-03-13T07:35:27;2.53;;;1.80;;
11731;SDS011;5922;53.734;10.258;2023-03-13T07:37:56;2.57;;;1.47;;
11731;SDS011;5922;53.734;10.258;2023-03-13T07:40:23;3.20;;;1.67;;
11731;SDS011;5922;53.734;10.258;2023-03-13T07:42:51;3.43;;;1.80;;
11731;SDS011;5922;53.734;10.258;2023-03-13T07:45:18;2.97;;;1.70;;
11731;SDS011;5922;53.734;10.258;2023-03-13T07:47:45;2.20;;;1.60;;
11731;SDS011;5922;53.734;10.258;2023-03-13T07:50:12;3.67;;;1.80;;
11731;SDS011;5922;53.734;10.258;2023-03-13T07:52:40;2.73;;;1.70;;
11731;SDS011;5922;53.734;10.258;2023-03-13T07:55:09;2.13;;;1.60;;
11731;SDS011;5922;53.734;10.258;2023-03-13T07:57:36;2.30;;;1.50;;
11731;SDS011;5922;53.734;10.258;2023-03-13T08:00:03;2.37;;;1.60;;
11731;SDS011;5922;53.734;10.258;2023-03-13T08:02:35;1.93;;;1.53;;
11731;SDS011;5922;53.734;10.258;2023-03-13T08:05:02;2.27;;;1.70;;
11731;SDS011;5922;53.734;10.258;2023-03-13T08:07:30;1.70;;;1.60;;
11731;SDS011;5922;53.734;10.258;2023-03-13T08:09:57;3.37;;;1.87;;
11731;SDS011;5922;53.734;10.258;2023-03-13T08:12:26;2.47;;;1.77;;
11731;SDS011;5922;53.734;10.258;2023-03-13T08:14:53;3.97;;;2.07;;
11731;SDS011;5922;53.734;10.258;2023-03-13T08:17:21;2.53;;;1.70;;
11731;SDS011;5922;53.734;10.258;2023-03-13T08:19:48;2.03;;;1.90;;
11731;SDS011;5922;53.734;10.258;2023-03-13T08:22:15;3.67;;;2.00;;
11731;SDS011;5922;53.734;10.258;2023-03-13T08:24:42;4.60;;;2.10;;
11731;SDS011;5922;53.734;10.258;2023-03-13T08:27:09;2.50;;;2.30;;
11731;SDS011;5922;53.734;10.258;2023-03-13T08:29:38;3.77;;;2.27;;
11731;SDS011;5922;53.734;10.258;2023-03-13T08:32:05;2.43;;;2.23;;
11731;SDS011;5922;53.734;10.258;2023-03-13T08:34:33;2.70;;;2.00;;
11731;SDS011;5922;53.734;10.258;2023-03-13T08:37:00;2.10;;;1.90;;
11731;SDS011;5922;53.734;10.258;2023-03-13T08:39:28;2.33;;;2.03;;
11731;SDS011;5922;53.734;10.258;2023-03-13T08:41:55;2.37;;;1.83;;
11731;SDS011;5922;53.734;10.258;2023-03-13T08:44:22;2.87;;;2.33;;
11731;SDS011;5922;53.734;10.258;2023-03-13T08:46:51;2.80;;;1.97;;
11731;SDS011;5922;53.734;10.258;2023-03-13T08:49:21;2.13;;;1.93;;
11731;SDS011;5922;53.734;10.258;2023-03-13T08:51:50;2.80;;;1.90;;
11731;SDS011;5922;53.734;10.258;2023-03-13T08:54:17;3.33;;;2.10;;
11731;SDS011;5922;53.734;10.258;2023-03-13T08:56:44;2.70;;;1.93;;
11731;SDS011;5922;53.734;10.258;2023-03-13T08:59:12;4.83;;;2.07;;
11731;SDS011;5922;53.734;10.258;2023-03-13T09:01:40;2.40;;;2.20;;
11731;SDS011;5922;53.734;10.258;2023-03-13T09:04:09;4.10;;;1.90;;
11731;SDS011;5922;53.734;10.258;2023-03-13T09:06:36;4.07;;;2.27;;
11731;SDS011;5922;53.734;10.258;2023-03-13T09:09:04;2.40;;;2.20;;
11731;SDS011;5922;53.734;10.258;2023-03-13T09:11:32;2.67;;;2.20;;
11731;SDS011;5922;53.734;10.258;2023-03-13T09:13:59;2.40;;;2.20;;
11731;SDS011;5922;53.734;10.258;2023-03-13T09:16:27;2.83;;;2.33;;
11731;SDS011;5922;53.734;10.258;2023-03-13T09:18:55;2.50;;;2.30;;
11731;SDS011;5922;53.734;10.258;2023-03-13T09:21:24;2.53;;;2.33;;
11731;SDS011;5922;53.734;10.258;2023-03-13T09:23:52;2.67;;;2.47;;
11731;SDS011;5922;53.734;10.258;2023-03-13T09:26:20;2.97;;;2.77;;
11731;SDS011;5922;53.734;10.258;2023-03-13T09:28:47;2.73;;;2.53;;
11731;SDS011;5922;53.734;10.258;2023-03-13T09:31:15;3.23;;;2.90;;
11731;SDS011;5922;53.734;10.258;2023-03-13T09:33:44;3.07;;;2.77;;
11731;SDS011;5922;53.734;10.258;2023-03-13T09:36:11;3.83;;;2.40;;
11731;SDS011;5922;53.734;10.258;2023-03-13T09:38:42;5.97;;;2.50;;
11731;SDS011;5922;53.734;10.258;2023-03-13T09:41:23;7.97;;;2.83;;
11731;SDS011;5922;53.734;10.258;2023-03-13T09:43:52;6.77;;;3.37;;
11731;SDS011;5922;53.734;10.258;2023-03-13T09:46:24;3.27;;;2.97;;
11731;SDS011;5922;53.734;10.258;2023-03-13T09:48:53;4.97;;;2.80;;
11731;SDS011;5922;53.734;10.258;2023-03-13T09:51:23;3.87;;;2.90;;
11731;SDS011;5922;53.734;10.258;2023-03-13T09:53:54;5.47;;;2.83;;
11731;SDS011;5922;53.734;10.258;2023-03-13T09:56:27;3.27;;;2.87;;
11731;SDS011;5922;53.734;10.258;2023-03-13T09:58:57;3.93;;;2.80;;
11731;SDS011;5922;53.734;10.258;2023-03-13T10:01:26;3.60;;;2.63;;
11731;SDS011;5922;53.734;10.258;2023-03-13T10:04:06;3.57;;;2.60;;
11731;SDS011;5922;53.734;10.258;2023-03-13T10:06:34;3.40;;;2.73;;
11731;SDS011;5922;53.734;10.258;2023-03-13T10:09:04;2.67;;;2.47;;
11731;SDS011;5922;53.734;10.258;2023-03-13T10:11:32;3.67;;;2.80;;
11731;SDS011;5922;53.734;10.258;2023-03-13T10:14:02;3.07;;;2.87;;
11731;SDS011;5922;53.734;10.258;2023-03-13T10:16:31;5.13;;;2.80;;
11731;SDS011;5922;53.734;10.258;2023-03-13T10:19:06;4.10;;;2.57;;
11731;SDS011;5922;53.734;10.258;2023-03-13T10:21:35;4.10;;;2.90;;
11731;SDS011;5922;53.734;10.258;2023-03-13T10:24:04;3.87;;;2.83;;
11731;SDS011;5922;53.734;10.258;2023-03-13T10:26:37;5.83;;;2.80;;
11731;SDS011;5922;53.734;10.258;2023-03-13T10:29:13;3.30;;;2.70;;
11731;SDS011;5922;53.734;10.258;2023-03-13T10:31:42;4.43;;;3.50;;
11731;SDS011;5922;53.734;10.258;2023-03-13T10:34:13;3.23;;;2.93;;
11731;SDS011;5922;53.734;10.258;2023-03-13T10:36:44;5.00;;;2.93;;
11731;SDS011;5922;53.734;10.258;2023-03-13T10:39:15;3.13;;;2.83;;
11731;SDS011;5922;53.734;10.258;2023-03-13T10:41:42;3.20;;;2.90;;
11731;SDS011;5922;53.734;10.258;2023-03-13T10:44:14;4.57;;;2.83;;
11731;SDS011;5922;53.734;10.258;2023-03-13T10:46:44;3.43;;;2.90;;
11731;SDS011;5922;53.734;10.258;2023-03-13T10:49:13;5.23;;;2.47;;
11731;SDS011;5922;53.734;10.258;2023-03-13T10:51:44;5.37;;;3.03;;
11731;SDS011;5922;53.734;10.258;2023-03-13T10:54:15;3.70;;;2.53;;
11731;SDS011;5922;53.734;10.258;2023-03-13T10:56:42;4.70;;;2.33;;
11731;SDS011;5922;53.734;10.258;2023-03-13T10:59:19;2.87;;;2.50;;
11731;SDS011;5922;53.734;10.258;2023-03-13T11:01:48;3.00;;;2.53;;
11731;SDS011;5922;53.734;10.258;2023-03-13T11:04:20;3.07;;;2.23;;
11731;SDS011;5922;53.734;10.258;2023-03-13T11:06:49;3.13;;;2.30;;
11731;SDS011;5922;53.734;10.258;2023-03-13T11:09:19;3.17;;;2.47;;
11731;SDS011;5922;53.734;10.258;2023-03-13T11:11:47;5.37;;;2.57;;
11731;SDS011;5922;53.734;10.258;2023-03-13T11:14:15;2.93;;;2.27;;
11731;SDS011;5922;53.734;10.258;2023-03-13T11:16:45;4.17;;;2.60;;
11731;SDS011;5922;53.734;10.258;2023-03-13T11:19:19;4.33;;;2.50;;
11731;SDS011;5922;53.734;10.258;2023-03-13T11:21:51;3.43;;;2.73;;
11731;SDS011;5922;53.734;10.258;2023-03-13T11:24:25;3.83;;;2.37;;
11731;SDS011;5922;53.734;10.258;2023-03-13T11:26:56;3.20;;;2.50;;
11731;SDS011;5922;53.734;10.258;2023-03-13T11:29:28;5.93;;;2.80;;
11731;SDS011;5922;53.734;10.258;2023-03-13T11:32:04;5.77;;;2.40;;
11731;SDS011;5922;53.734;10.258;2023-03-13T11:34:41;4.07;;;2.50;;
11731;SDS011;5922;53.734;10.258;2023-03-13T11:37:22;3.33;;;2.30;;
11731;SDS011;5922;53.734;10.258;2023-03-13T11:40:00;2.87;;;2.40;;
11731;SDS011;5922;53.734;10.258;2023-03-13T11:48:13;2.17;;;1.97;;
11731;SDS011;5922;53.734;10.258;2023-03-13T11:50:57;2.33;;;1.90;;
11731;SDS011;5922;53.734;10.258;2023-03-13T11:54:01;3.53;;;1.80;;
11731;SDS011;5922;53.734;10.258;2023-03-13T11:56:42;3.00;;;2.00;;
11731;SDS011;5922;53.734;10.258;2023-03-13T12:17:50;3.33;;;1.60;;
11731;SDS011;5922;53.734;10.258;2023-03-13T12:30:44;3.90;;;1.77;;
11731;SDS011;5922;53.734;10.258;2023-03-13T12:33:16;4.63;;;1.80;;
11731;SDS011;5922;53.734;10.258;2023-03-13T12:35:51;2.10;;;1.60;;
11731;SDS011;5922;53.734;10.258;2023-03-13T12:38:39;4.10;;;1.50;;
11731;SDS011;5922;53.734;10.258;2023-03-13T12:41:17;3.10;;;1.60;;
11731;SDS011;5922;53.734;10.258;2023-03-13T12:43:49;3.43;;;1.40;;
11731;SDS011;5922;53.734;10.258;2023-03-13T12:46:27;2.77;;;1.63;;
11731;SDS011;5922;53.734;10.258;2023-03-13T12:52:42;3.97;;;1.80;;
11731;SDS011;5922;53.734;10.258;2023-03-13T12:55:40;3.07;;;1.70;;
11731;SDS011;5922;53.734;10.258;2023-03-13T12:58:28;2.67;;;1.77;;
11731;SDS011;5922;53.734;10.258;2023-03-13T13:01:02;2.80;;;1.80;;
11731;SDS011;5922;53.734;10.258;2023-03-13T13:03:48;2.47;;;1.60;;
11731;SDS011;5922;53.734;10.258;2023-03-13T13:06:57;2.93;;;1.77;;
11731;SDS011;5922;53.734;10.258;2023-03-13T13:09:29;5.53;;;2.00;;
11731;SDS011;5922;53.734;10.258;2023-03-13T13:12:17;5.33;;;1.70;;
11731;SDS011;5922;53.734;10.258;2023-03-13T13:14:59;3.90;;;1.70;;
11731;SDS011;5922;53.734;10.258;2023-03-13T13:20:34;5.43;;;2.33;;
11731;SDS011;5922;53.734;10.258;2023-03-13T13:29:50;4.17;;;2.20;;
11731;SDS011;5922;53.734;10.258;2023-03-13T13:32:00;3.70;;;2.00;;
11731;SDS011;5922;53.734;10.258;2023-03-13T13:37:33;6.03;;;1.63;;
11731;SDS011;5922;53.734;10.258;2023-03-13T13:40:33;4.07;;;1.80;;
11731;SDS011;5922;53.734;10.258;2023-03-13T13:43:27;2.63;;;1.70;;
11731;SDS011;5922;53.734;10.258;2023-03-13T13:46:17;4.53;;;1.60;;
11731;SDS011;5922;53.734;10.258;2023-03-13T13:48:59;4.00;;;1.50;;
11731;SDS011;5922;53.734;10.258;2023-03-13T13:51:32;8.40;;;1.97;;
11731;SDS011;5922;53.734;10.258;2023-03-13T13:54:01;6.33;;;2.03;;
11731;SDS011;5922;53.734;10.258;2023-03-13T13:56:36;4.70;;;1.80;;
11731;SDS011;5922;53.734;10.258;2023-03-13T13:59:13;2.47;;;1.70;;
11731;SDS011;5922;53.734;10.258;2023-03-13T14:01:44;4.10;;;1.53;;
11731;SDS011;5922;53.734;10.258;2023-03-13T14:04:12;5.33;;;1.90;;
11731;SDS011;5922;53.734;10.258;2023-03-13T14:06:49;2.53;;;1.40;;
11731;SDS011;5922;53.734;10.258;2023-03-13T14:09:54;3.40;;;1.70;;
11731;SDS011;5922;53.734;10.258;2023-03-13T14:12:27;3.90;;;1.77;;
11731;SDS011;5922;53.734;10.258;2023-03-13T14:15:08;2.80;;;1.50;;
11731;SDS011;5922;53.734;10.258;2023-03-13T14:17:41;3.80;;;1.77;;
11731;SDS011;5922;53.734;10.258;2023-03-13T14:20:19;1.77;;;1.63;;
11731;SDS011;5922;53.734;10.258;2023-03-13T14:22:48;4.13;;;1.70;;
11731;SDS011;5922;53.734;10.258;2023-03-13T14:25:17;4.30;;;1.80;;
11731;SDS011;5922;53.734;10.258;2023-03-13T14:27:45;4.10;;;1.50;;
11731;SDS011;5922;53.734;10.258;2023-03-13T14:30:18;4.33;;;1.80;;
11731;SDS011;5922;53.734;10.258;2023-03-13T14:32:50;7.10;;;1.40;;
11731;SDS011;5922;53.734;10.258;2023-03-13T14:35:19;4.93;;;1.70;;
11731;SDS011;5922;53.734;10.258;2023-03-13T14:37:50;3.40;;;1.70;;
11731;SDS011;5922;53.734;10.258;2023-03-13T14:40:19;3.53;;;1.40;;
11731;SDS011;5922;53.734;10.258;2023-03-13T14:42:53;2.63;;;1.70;;
11731;SDS011;5922;53.734;10.258;2023-03-13T14:45:26;2.90;;;1.53;;
11731;SDS011;5922;53.734;10.258;2023-03-13T14:47:59;2.90;;;1.70;;
11731;SDS011;5922;53.734;10.258;2023-03-13T14:50:26;2.80;;;1.60;;
11731;SDS011;5922;53.734;10.258;2023-03-13T14:52:54;3.03;;;1.67;;
11731;SDS011;5922;53.734;10.258;2023-03-13T14:55:31;2.07;;;1.67;;
11731;SDS011;5922;53.734;10.258;2023-03-13T14:57:59;5.93;;;2.07;;
11731;SDS011;5922;53.734;10.258;2023-03-13T15:00:32;3.67;;;1.77;;
11731;SDS011;5922;53.734;10.258;2023-03-13T15:03:19;5.53;;;1.70;;
11731;SDS011;5922;53.734;10.258;2023-03-13T15:05:47;4.43;;;1.50;;
11731;SDS011;5922;53.734;10.258;2023-03-13T15:08:15;3.27;;;1.40;;
11731;SDS011;5922;53.734;10.258;2023-03-13T15:10:42;3.03;;;1.80;;
11731;SDS011;5922;53.734;10.258;2023-03-13T15:13:15;3.37;;;1.70;;
11731;SDS011;5922;53.734;10.258;2023-03-13T15:15:46;3.47;;;1.80;;
11731;SDS011;5922;53.734;10.258;2023-03-13T15:18:18;4.77;;;2.07;;
11731;SDS011;5922;53.734;10.258;2023-03-13T15:20:52;1.87;;;1.50;;
11731;SDS011;5922;53.734;10.258;2023-03-13T15:23:20;3.67;;;1.73;;
11731;SDS011;5922;53.734;10.258;2023-03-13T15:25:49;3.37;;;1.70;;
11731;SDS011;5922;53.734;10.258;2023-03-13T15:28:20;2.20;;;1.73;;
11731;SDS011;5922;53.734;10.258;2023-03-13T15:30:49;3.57;;;1.40;;
11731;SDS011;5922;53.734;10.258;2023-03-13T15:33:31;7.60;;;1.60;;
11731;SDS011;5922;53.734;10.258;2023-03-13T15:36:00;4.03;;;1.70;;
11731;SDS011;5922;53.734;10.258;2023-03-13T15:38:40;2.57;;;1.70;;
11731;SDS011;5922;53.734;10.258;2023-03-13T15:41:07;3.43;;;1.60;;
11731;SDS011;5922;53.734;10.258;2023-03-13T15:43:35;3.90;;;1.50;;
11731;SDS011;5922;53.734;10.258;2023-03-13T15:46:02;3.17;;;1.70;;
11731;SDS011;5922;53.734;10.258;2023-03-13T15:48:32;2.63;;;1.37;;
11731;SDS011;5922;53.734;10.258;2023-03-13T15:51:09;2.60;;;1.67;;